Nearby METAR Reports

 

KARR - Chicago/Aurora, Illinois, USA
Distance from station: S 8mi, 13km
Updated: Sun, Jan-21-2018 9:52am CST
Fog, Overcast
Fog, Overcast
 Wind from ESE
Wind: ESE 5 mph , 7 km/h
Temperature: 39°F , 4°C
Wind Chill: 35°F , 2°C
Dew Point: 39°F , 4°C
Humidity: 100%
Barometer: 1014.9 hPa
Summary: Fog
Clouds: Overcast
Visibility: less than 1/4 mile , 2 km
Cloud details: Overcast 200 ft
2018/01/21 15:52 KARR 211552Z 11004KT M1/4SM FG VV002 04/04 A2997 RMK AO2 SLP154 T00390039
KDKB - De Kalb, Illinois, USA
Distance from station: WNW 12mi, 19km
Updated: Sun, Jan-21-2018 9:55am CST
Fog, Overcast
Fog, Overcast
 Wind from ESE
Wind: ESE 6 mph , 9 km/h
Temperature: 37°F , 3°C
Wind Chill: 32°F , 0°C
Dew Point: 37°F , 3°C
Humidity: 100%
Barometer: 1014.9 hPa
Summary: Fog
Clouds: Overcast
Visibility: 1/4 mile , 2 km
Cloud details: Overcast 200 ft
2018/01/21 15:55 KDKB 211555Z AUTO 12005KT 1/4SM FG OVC002 03/03 A2997 RMK AO2 T00320031
 
KDPA - Chicago/Dupage, Illinois, USA
Distance from station: E 12mi, 19km
Updated: Sun, Jan-21-2018 9:52am CST
Fog, Overcast
Fog, Overcast
 Wind from SSE
Wind: SSE 6 mph , 9 km/h
Temperature: 39°F , 4°C
Wind Chill: 35°F , 2°C
Dew Point: 39°F , 4°C
Humidity: 100%
Barometer: 1014.9 hPa
Summary: Fog
Clouds: Overcast
Visibility: less than 1/4 mile , 2 km
Cloud details: Overcast 200 ft
2018/01/21 15:52 KDPA 211552Z 15005KT M1/4SM R02L/1200FT FG VV002 04/04 A2997 RMK AO2 SLP154 T00390039
KLOT - Romeoville/Chi, Illinois, USA
Distance from station: SE 28mi, 45km
Updated: Sun, Jan-21-2018 9:55am CST
Mist, Overcast
Mist, Overcast
 Wind from SSE
Wind: SSE 9 mph , 15 km/h
Temperature: 39°F , 4°C
Wind Chill: 33°F , 1°C
Dew Point: 39°F , 4°C
Humidity: 100%
Barometer: 1015.2 hPa
Summary: Mist
Clouds: Overcast
Visibility: 3/4 mile , 5 km
Cloud details: Overcast 300 ft
2018/01/21 15:55 KLOT 211555Z AUTO 16008KT 3/4SM BR OVC003 04/04 A2998 RMK AO2 T00420042
 
KORD - Chicago O'hare, Illinois, USA
Distance from station: ENE 29mi, 46km
Updated: Sun, Jan-21-2018 9:51am CST
Fog, Overcast
Fog, Overcast
 Wind from calm
Wind: Calm
Temperature: 39°F , 4°C
Dew Point: 39°F , 4°C
Humidity: 100%
Barometer: 1014.9 hPa
Summary: Fog
Clouds: Overcast
Visibility: 1/2 mile , 2 km
Cloud details: Overcast 300 ft
2018/01/21 15:51 KORD 211551Z 00000KT 1/2SM R10L/P6000FT FG OVC003 04/04 A2997 RMK AO2 SLP154 T00440039
KJOT - Joliet, Illinois, USA
Distance from station: SSE 30mi, 48km
Updated: Sun, Jan-21-2018 9:55am CST
Mist, Overcast
Mist, Overcast
 Wind from SE
Wind: SE 5 mph , 7 km/h
Temperature: 41°F , 5°C
Wind Chill: 38°F , 3°C
Dew Point: 41°F , 5°C
Humidity: 100%
Barometer: 1015.6 hPa
Summary: Mist
Clouds: Overcast
Visibility: 1 3/4 miles , 5 km
Cloud details: Overcast 300 ft
2018/01/21 15:55 KJOT 211555Z AUTO 14004KT 1 3/4SM BR OVC003 05/05 A2999 RMK AO2 T00480048
 
KRPJ - Rochelle/Koritz, Illinois, USA
Distance from station: W 31mi, 50km
Updated: Sun, Jan-21-2018 9:55am CST
Mist, Overcast
Mist, Overcast
 Wind from SE
Wind: SE 5 mph , 7 km/h
Temperature: 39°F , 4°C
Wind Chill: 35°F , 2°C
Dew Point: 39°F , 4°C
Humidity: 100%
Barometer: 1014.6 hPa
Summary: Mist
Clouds: Overcast
Visibility: 2 1/2 miles , 2 km
Cloud details: Overcast 400 ft
2018/01/21 15:55 KRPJ 211555Z AUTO 13004KT 2 1/2SM BR OVC004 04/04 A2996 RMK AO2 T00380035
KC09 - Morris-Washburn, Illinois, USA
Distance from station: S 31mi, 51km
Updated: Sun, Jan-21-2018 9:55am CST
Fog, Overcast
Fog, Overcast
 Wind from SE
Wind: SE 5 mph , 7 km/h
Temperature: 39°F , 4°C
Wind Chill: 35°F , 2°C
Dew Point: 39°F , 4°C
Humidity: 100%
Barometer: 1014.9 hPa
Summary: Fog
Clouds: Overcast
Visibility: 1/4 mile , 2 km
Cloud details: Overcast 300 ft
2018/01/21 15:55 KC09 211555Z AUTO 13004KT 1/4SM FG OVC003 04/04 A2997 RMK AO2 T00430040
 
KPWK - Palwaukee, Illinois, USA
Distance from station: ENE 34mi, 54km
Updated: Sun, Jan-21-2018 9:52am CST
Mist, Overcast
Mist, Overcast
 Wind from S
Wind: S 3 mph , 6 km/h
Temperature: 43°F , 6°C
Dew Point: 39°F , 4°C
Humidity: 87%
Barometer: 1015.9 hPa
Summary: Mist
Clouds: Overcast
Visibility: 4 miles , 6 km
Cloud details: Overcast 600 ft
2018/01/21 15:52 KPWK 211552Z 19003KT 4SM BR OVC006 06/04 A3000 RMK AO2 SLP163 T00560044 $
KMDW - Chicago, Illinois, USA
Distance from station: E 38mi, 62km
Updated: Sun, Jan-21-2018 9:53am CST
Mist, Overcast
Mist, Overcast
 Wind from S
Wind: S 3 mph , 6 km/h
Temperature: 43°F , 6°C
Dew Point: 41°F , 5°C
Humidity: 93%
Barometer: 1015.2 hPa
Summary: Mist
Clouds: Overcast
Visibility: 2 miles , 3 km
Cloud details: Overcast 300 ft
2018/01/21 15:53 KMDW 211553Z 18003KT 2SM BR OVC003 06/05 A2998 RMK AO2 SLP160 T00560050
 
KRFD - Rockford, Illinois, USA
Distance from station: NW 39mi, 62km
Updated: Sun, Jan-21-2018 9:54am CST
Mist, Overcast
Mist, Overcast
 Wind from ENE
Wind: ENE 3 mph , 6 km/h
Temperature: 39°F , 4°C
Dew Point: 36°F , 2°C
Humidity: 87%
Barometer: 1015.2 hPa
Summary: Mist
Clouds: Overcast
Visibility: 5 miles , 8 km
Cloud details: Mostly cloudy 600 ft
Overcast 6000 ft
2018/01/21 15:54 KRFD 211554Z 07003KT 5SM BR BKN006 OVC060 04/02 A2998 RMK AO2 SLP156 T00390022